createdAt,value
2023-03-06T00:00:57.314Z,97722.98
2023-03-06T00:03:51.165Z,97725.61
2023-03-06T00:06:44.863Z,97723.58
2023-03-06T00:09:38.549Z,97725.35
2023-03-06T00:12:32.251Z,97716.65
2023-03-06T00:15:27.418Z,97714.53
2023-03-06T00:18:20.971Z,97706.24
2023-03-06T00:21:14.718Z,97698.12
2023-03-06T00:24:09.147Z,97699.95
2023-03-06T00:27:02.809Z,97702.89
2023-03-06T00:30:01.525Z,97702.78
2023-03-06T00:32:56.018Z,97703.36
2023-03-06T00:35:49.864Z,97701.05
2023-03-06T00:38:43.538Z,97694.00
2023-03-06T00:41:37.259Z,97699.48
2023-03-06T00:44:31.646Z,97700.66
2023-03-06T00:47:25.536Z,97704.91
2023-03-06T00:50:19.321Z,97707.77
2023-03-06T00:53:13.338Z,97709.70
2023-03-06T00:55:55.682Z,97713.41
2023-03-06T00:58:49.369Z,97701.50
2023-03-06T01:01:43.039Z,97705.41
2023-03-06T01:04:36.627Z,97709.36
2023-03-06T01:07:33.746Z,97711.35
2023-03-06T01:10:27.685Z,97709.42
2023-03-06T01:13:21.284Z,97708.89
2023-03-06T01:16:18.802Z,97708.80
2023-03-06T01:19:12.801Z,97710.38
2023-03-06T01:22:06.467Z,97705.15
2023-03-06T01:25:00.318Z,97703.79
2023-03-06T01:27:54.081Z,97708.77
2023-03-06T01:30:47.651Z,97707.80
2023-03-06T01:33:31.581Z,97706.34
2023-03-06T01:36:25.356Z,97706.35
2023-03-06T01:39:18.910Z,97701.59
2023-03-06T01:41:55.421Z,97698.48
2023-03-06T01:45:10.839Z,97698.17
2023-03-06T01:48:04.421Z,97695.45
2023-03-06T01:50:58.055Z,97696.75
2023-03-06T01:53:53.064Z,97692.57
2023-03-06T01:56:49.906Z,97687.48
2023-03-06T01:59:27.567Z,97687.24
2023-03-06T02:02:22.267Z,97686.45
2023-03-06T02:05:16.459Z,97682.34
2023-03-06T02:08:12.016Z,97683.91
2023-03-06T02:11:16.994Z,97677.46
2023-03-06T02:14:11.558Z,97679.64
2023-03-06T02:17:05.290Z,97679.67
2023-03-06T02:20:09.009Z,97679.35
2023-03-06T02:23:10.733Z,97677.77
2023-03-06T02:26:08.062Z,97673.64
2023-03-06T02:29:01.920Z,97677.83
2023-03-06T02:31:55.602Z,97678.99
2023-03-06T02:34:57.423Z,97676.98
2023-03-06T02:37:33.840Z,97673.95
2023-03-06T02:40:28.656Z,97669.19
2023-03-06T02:43:27.897Z,97671.39
2023-03-06T02:46:21.881Z,97669.86
2023-03-06T02:49:15.446Z,97668.95
2023-03-06T02:51:52.809Z,97673.14
2023-03-06T02:54:43.763Z,97673.78
2023-03-06T02:57:37.421Z,97670.92
2023-03-06T03:00:22.992Z,97665.13
2023-03-06T03:03:16.766Z,97668.35
2023-03-06T03:06:11.107Z,97669.77
2023-03-06T03:09:04.852Z,97676.04
2023-03-06T03:11:58.398Z,97666.25
2023-03-06T03:14:52.014Z,97666.34
2023-03-06T03:17:36.085Z,97660.45
2023-03-06T03:20:29.654Z,97664.65
2023-03-06T03:23:23.472Z,97665.56
2023-03-06T03:26:20.201Z,97663.95
2023-03-06T03:29:11.252Z,97656.88
2023-03-06T03:32:05.378Z,97647.25
2023-03-06T03:35:00.581Z,97643.45
2023-03-06T03:37:55.241Z,97638.73
2023-03-06T03:40:48.867Z,97641.71
2023-03-06T03:43:43.315Z,97633.08
2023-03-06T03:46:37.108Z,97629.94
2023-03-06T03:49:30.790Z,97633.92
2023-03-06T03:52:24.505Z,97630.98
2023-03-06T03:55:18.223Z,97627.10
2023-03-06T03:58:11.968Z,97623.52
2023-03-06T04:01:06.682Z,97626.95
2023-03-06T04:04:00.315Z,97628.06
2023-03-06T04:06:54.006Z,97630.98
2023-03-06T04:09:48.268Z,97634.08
2023-03-06T04:12:42.166Z,97624.63
2023-03-06T04:15:35.940Z,97619.87
2023-03-06T04:18:29.884Z,97618.95
2023-03-06T04:21:23.659Z,97620.65
2023-03-06T04:24:17.670Z,97613.77
2023-03-06T04:27:12.316Z,97613.30
2023-03-06T04:30:06.971Z,97614.38
2023-03-06T04:33:00.897Z,97610.75
2023-03-06T04:35:54.648Z,97608.02
2023-03-06T04:38:48.328Z,97612.75
2023-03-06T04:41:42.469Z,97606.77
2023-03-06T04:44:36.808Z,97601.66
2023-03-06T04:47:30.544Z,97603.40
2023-03-06T04:50:26.104Z,97601.83
2023-03-06T04:53:21.281Z,97603.42
2023-03-06T04:56:15.010Z,97599.96
2023-03-06T04:59:08.948Z,97597.19
2023-03-06T05:02:02.522Z,97596.04
2023-03-06T05:04:56.280Z,97590.98
2023-03-06T05:07:49.952Z,97586.27
2023-03-06T05:10:43.913Z,97581.95
2023-03-06T05:13:37.534Z,97579.30
2023-03-06T05:16:31.308Z,97581.83
2023-03-06T05:19:25.199Z,97585.16
2023-03-06T05:22:18.900Z,97580.23
2023-03-06T05:25:13.297Z,97582.45
2023-03-06T05:28:06.981Z,97575.74
2023-03-06T05:31:03.201Z,97576.52
2023-03-06T05:34:00.654Z,97570.27
2023-03-06T05:36:54.311Z,97569.80
2023-03-06T05:39:48.026Z,97571.09
2023-03-06T05:42:41.640Z,97567.79
2023-03-06T05:45:35.410Z,97570.59
2023-03-06T05:48:29.169Z,97567.10
2023-03-06T05:51:23.076Z,97564.13
2023-03-06T05:53:58.999Z,97563.09
2023-03-06T05:56:52.796Z,97561.35
2023-03-06T05:59:46.558Z,97567.09
2023-03-06T06:02:40.890Z,97566.61
2023-03-06T06:05:34.964Z,97565.11
2023-03-06T06:08:28.769Z,97561.86
2023-03-06T06:11:22.312Z,97566.35
2023-03-06T06:14:15.878Z,97562.08
2023-03-06T06:17:09.528Z,97564.61
2023-03-06T06:20:03.462Z,97565.24
2023-03-06T06:22:57.015Z,97565.64
2023-03-06T06:25:51.733Z,97566.63
2023-03-06T06:28:45.364Z,97561.83
2023-03-06T06:31:39.057Z,97561.27
2023-03-06T06:34:32.687Z,97566.10
2023-03-06T06:37:27.038Z,97565.64
2023-03-06T06:40:24.480Z,97571.02
2023-03-06T06:43:18.160Z,97573.02
2023-03-06T06:46:41.904Z,97569.95
2023-03-06T06:49:25.470Z,97568.56
2023-03-06T06:52:19.726Z,97568.27
2023-03-06T06:55:15.130Z,97566.43
2023-03-06T06:58:08.778Z,97564.16
2023-03-06T07:01:07.759Z,97562.16
2023-03-06T07:04:01.375Z,97563.52
2023-03-06T07:06:57.793Z,97563.73
2023-03-06T07:09:51.410Z,97563.51
2023-03-06T07:12:45.186Z,97564.58
2023-03-06T07:15:38.807Z,97567.29
2023-03-06T07:18:32.575Z,97570.84
2023-03-06T07:21:26.188Z,97567.73
2023-03-06T07:24:19.845Z,97574.02
2023-03-06T07:27:13.463Z,97576.35
2023-03-06T07:30:09.012Z,97574.81
2023-03-06T07:32:55.664Z,97575.42
2023-03-06T07:35:49.364Z,97574.18
2023-03-06T07:38:42.996Z,97571.96
2023-03-06T07:41:37.006Z,97573.52
2023-03-06T07:44:30.661Z,97577.75
2023-03-06T07:47:24.399Z,97578.39
2023-03-06T07:50:17.879Z,97582.15
2023-03-06T07:53:11.733Z,97578.92
2023-03-06T07:56:08.859Z,97578.54
2023-03-06T07:59:02.739Z,97578.08
2023-03-06T08:01:58.334Z,97579.65
2023-03-06T08:04:58.011Z,97582.27
2023-03-06T08:07:51.835Z,97584.59
2023-03-06T08:10:50.550Z,97582.40
2023-03-06T08:13:45.412Z,97586.42
2023-03-06T08:16:39.038Z,97581.64
2023-03-06T08:19:33.341Z,97580.98
2023-03-06T08:22:26.983Z,97582.11
2023-03-06T08:25:21.147Z,97580.92
2023-03-06T08:27:57.494Z,97577.25
2023-03-06T08:30:51.106Z,97580.66
2023-03-06T08:33:44.755Z,97579.03
2023-03-06T08:36:38.414Z,97578.23
2023-03-06T08:39:32.207Z,97581.38
2023-03-06T08:42:25.900Z,97582.47
2023-03-06T08:45:19.719Z,97582.92
2023-03-06T08:48:13.470Z,97585.05
2023-03-06T08:51:09.478Z,97588.98
2023-03-06T08:54:03.255Z,97587.70
2023-03-06T08:56:57.014Z,97591.02
2023-03-06T08:59:50.648Z,97587.44
2023-03-06T09:02:44.340Z,97588.70
2023-03-06T09:05:38.352Z,97589.52
2023-03-06T09:08:31.996Z,97594.13
2023-03-06T09:11:28.698Z,97593.86
2023-03-06T09:14:22.434Z,97596.60
2023-03-06T09:17:16.100Z,97595.59
2023-03-06T09:20:12.969Z,97593.23
2023-03-06T09:23:06.579Z,97591.50
2023-03-06T09:26:02.000Z,97587.75
2023-03-06T09:28:56.264Z,97581.25
2023-03-06T09:31:50.280Z,97586.55
2023-03-06T09:34:43.906Z,97584.45
2023-03-06T09:37:38.287Z,97581.27
2023-03-06T09:40:51.507Z,97577.94
2023-03-06T09:43:49.388Z,97579.45
2023-03-06T09:47:14.777Z,97581.90
2023-03-06T09:50:21.589Z,97580.89
2023-03-06T09:53:45.087Z,97577.92
2023-03-06T09:56:39.113Z,97574.58
2023-03-06T09:59:33.601Z,97572.62
2023-03-06T10:02:38.654Z,97570.34
2023-03-06T10:05:41.587Z,97569.00
2023-03-06T10:08:49.399Z,97569.40
2023-03-06T10:11:48.720Z,97568.88
2023-03-06T10:14:48.788Z,97569.30
2023-03-06T10:17:45.024Z,97567.77
2023-03-06T10:20:50.725Z,97563.64
2023-03-06T10:23:55.513Z,97562.78
2023-03-06T10:26:53.835Z,97561.06
2023-03-06T10:30:03.318Z,97558.52
2023-03-06T10:33:00.765Z,97560.45
2023-03-06T10:35:56.865Z,97560.90
2023-03-06T10:38:51.447Z,97553.35
2023-03-06T10:41:45.421Z,97550.05
2023-03-06T10:44:41.361Z,97543.75
2023-03-06T10:47:37.532Z,97548.34
2023-03-06T10:50:32.226Z,97541.52
2023-03-06T10:53:29.549Z,97537.73
2023-03-06T10:56:33.882Z,97538.95
2023-03-06T10:59:29.389Z,97533.73
2023-03-06T11:02:31.764Z,97525.88
2023-03-06T11:05:26.053Z,97526.99
2023-03-06T11:08:25.209Z,97524.98
2023-03-06T11:11:36.764Z,97524.38
2023-03-06T11:14:32.145Z,97515.95
2023-03-06T11:17:34.610Z,97516.19
2023-03-06T11:20:48.615Z,97509.08
2023-03-06T11:23:47.796Z,97505.58
2023-03-06T11:26:53.218Z,97501.14
2023-03-06T11:29:49.451Z,97493.25
2023-03-06T11:32:50.435Z,97494.03
2023-03-06T11:36:06.507Z,97482.04
2023-03-06T11:39:00.965Z,97483.94
2023-03-06T11:42:06.635Z,97483.98
2023-03-06T11:45:27.876Z,97481.95
2023-03-06T11:48:32.615Z,97479.91
2023-03-06T11:51:31.448Z,97471.20
2023-03-06T11:54:25.688Z,97465.25
2023-03-06T11:57:26.789Z,97464.88
2023-03-06T12:00:41.138Z,97467.00
2023-03-06T12:04:03.354Z,97470.20
2023-03-06T12:07:10.538Z,97463.41
2023-03-06T12:10:18.367Z,97461.77
2023-03-06T12:13:39.870Z,97461.81
2023-03-06T12:17:09.445Z,97458.94
2023-03-06T12:20:27.834Z,97451.86
2023-03-06T12:23:36.636Z,97446.56
2023-03-06T12:27:02.830Z,97442.00
2023-03-06T12:30:20.219Z,97432.79
2023-03-06T12:33:26.965Z,97429.56
2023-03-06T12:36:34.444Z,97426.75
2023-03-06T12:39:45.457Z,97425.08
2023-03-06T12:43:04.898Z,97422.91
2023-03-06T12:46:04.453Z,97416.83
2023-03-06T12:49:15.657Z,97411.65
2023-03-06T12:52:29.600Z,97413.11
2023-03-06T12:55:25.986Z,97405.77
2023-03-06T12:58:50.629Z,97402.42
2023-03-06T13:02:17.143Z,97391.95
2023-03-06T13:05:43.337Z,97383.95
2023-03-06T13:09:05.008Z,97375.85
2023-03-06T13:12:28.907Z,97368.50
2023-03-06T13:16:05.317Z,97370.63
2023-03-06T13:19:19.055Z,97373.27
2023-03-06T13:22:29.135Z,97374.16
2023-03-06T13:25:54.821Z,97367.78
2023-03-06T13:29:42.380Z,97364.38
2023-03-06T13:32:38.667Z,97357.84
2023-03-06T13:35:55.990Z,97356.42
2023-03-06T13:39:08.864Z,97354.31
2023-03-06T13:42:03.498Z,97350.88
2023-03-06T13:44:59.107Z,97355.85
2023-03-06T13:48:24.588Z,97352.91
2023-03-06T13:51:29.512Z,97358.79
2023-03-06T13:54:40.355Z,97352.74
2023-03-06T13:57:54.070Z,97346.60
2023-03-06T14:01:17.224Z,97347.00
2023-03-06T14:04:39.966Z,97343.98
2023-03-06T14:07:34.930Z,97342.20
2023-03-06T14:10:32.486Z,97344.55
2023-03-06T14:13:38.413Z,97340.63
2023-03-06T14:16:49.859Z,97339.42
2023-03-06T14:19:44.322Z,97345.06
2023-03-06T14:22:38.130Z,97342.82
2023-03-06T14:25:33.051Z,97342.54
2023-03-06T14:28:32.239Z,97346.45
2023-03-06T14:31:29.179Z,97345.04
2023-03-06T14:34:27.415Z,97344.77
2023-03-06T14:37:26.365Z,97342.07
2023-03-06T14:40:25.947Z,97347.60
2023-03-06T14:43:27.044Z,97348.11
2023-03-06T14:46:25.090Z,97358.40
2023-03-06T14:49:20.694Z,97380.66
2023-03-06T14:52:23.393Z,97384.23
2023-03-06T14:55:21.293Z,97398.09
2023-03-06T14:58:20.883Z,97395.96
2023-03-06T15:01:16.599Z,97399.98
2023-03-06T15:04:22.866Z,97390.48
2023-03-06T15:07:23.224Z,97390.39
2023-03-06T15:10:27.706Z,97386.83
2023-03-06T15:13:26.598Z,97386.95
2023-03-06T15:16:31.577Z,97388.90
2023-03-06T15:19:28.939Z,97384.71
2023-03-06T15:22:32.738Z,97378.98
2023-03-06T15:25:31.247Z,97383.98
2023-03-06T15:28:38.760Z,97377.69
2023-03-06T15:31:34.673Z,97378.75
2023-03-06T15:34:28.561Z,97377.60
2023-03-06T15:37:31.026Z,97380.70
2023-03-06T15:40:28.338Z,97383.66
2023-03-06T15:43:22.156Z,97386.42
2023-03-06T15:46:16.279Z,97382.96
2023-03-06T15:49:18.925Z,97387.40
2023-03-06T15:52:13.918Z,97387.62
2023-03-06T15:55:09.439Z,97388.71
2023-03-06T15:58:05.530Z,97385.06
2023-03-06T16:00:59.667Z,97382.84
2023-03-06T16:03:56.175Z,97379.42
2023-03-06T16:07:10.905Z,97377.30
2023-03-06T16:10:05.227Z,97372.20
2023-03-06T16:13:03.999Z,97372.23
2023-03-06T16:15:57.724Z,97375.25
2023-03-06T16:18:51.521Z,97374.63
2023-03-06T16:21:45.370Z,97378.77
2023-03-06T16:24:39.249Z,97375.16
2023-03-06T16:27:32.895Z,97377.07
2023-03-06T16:30:29.577Z,97375.32
2023-03-06T16:33:23.264Z,97374.36
2023-03-06T16:36:23.486Z,97373.16
2023-03-06T16:39:20.366Z,97373.53
2023-03-06T16:42:16.602Z,97376.23
2023-03-06T16:44:53.277Z,97372.30
2023-03-06T16:47:49.111Z,97369.77
2023-03-06T16:50:43.749Z,97370.54
2023-03-06T16:53:37.486Z,97365.20
2023-03-06T16:56:31.438Z,97365.69
2023-03-06T16:59:25.520Z,97356.48
2023-03-06T17:02:19.720Z,97360.90
2023-03-06T17:05:14.736Z,97359.92
2023-03-06T17:07:54.451Z,97362.52
2023-03-06T17:10:50.182Z,97363.71
2023-03-06T17:13:45.167Z,97356.68
2023-03-06T17:16:40.640Z,97361.17
2023-03-06T17:19:34.347Z,97373.89
2023-03-06T17:22:39.223Z,97379.41
2023-03-06T17:25:36.055Z,97380.66
2023-03-06T17:28:29.918Z,97387.41
2023-03-06T17:31:26.917Z,97383.14
2023-03-06T17:34:22.054Z,97383.45
2023-03-06T17:37:17.369Z,97377.30
2023-03-06T17:40:15.612Z,97375.76
2023-03-06T17:43:09.330Z,97376.06
2023-03-06T17:46:06.420Z,97379.08
2023-03-06T17:49:00.135Z,97379.86
2023-03-06T17:51:53.974Z,97381.28
2023-03-06T17:54:47.684Z,97385.30
2023-03-06T17:57:41.214Z,97388.55
2023-03-06T18:00:35.088Z,97394.81
2023-03-06T18:03:28.869Z,97396.34
2023-03-06T18:06:24.632Z,97395.69
2023-03-06T18:09:18.579Z,97395.73
2023-03-06T18:12:12.785Z,97397.73
2023-03-06T18:15:08.106Z,97397.45
2023-03-06T18:18:02.166Z,97395.69
2023-03-06T18:20:56.053Z,97395.58
2023-03-06T18:23:49.880Z,97400.79
2023-03-06T18:26:44.641Z,97395.40
2023-03-06T18:29:38.443Z,97398.85
2023-03-06T18:32:32.280Z,97397.66
2023-03-06T18:35:26.346Z,97403.86
2023-03-06T18:38:20.815Z,97404.09
2023-03-06T18:41:15.239Z,97408.60
2023-03-06T18:44:09.298Z,97410.91
2023-03-06T18:47:03.105Z,97412.09
2023-03-06T18:49:57.251Z,97413.08
2023-03-06T18:52:50.735Z,97414.67
2023-03-06T18:55:51.209Z,97410.30
2023-03-06T18:58:44.821Z,97410.91
2023-03-06T19:01:38.766Z,97409.39
2023-03-06T19:04:32.833Z,97411.98
2023-03-06T19:07:26.931Z,97409.48
2023-03-06T19:10:21.130Z,97406.67
2023-03-06T19:13:15.528Z,97405.52
2023-03-06T19:16:17.195Z,97404.27
2023-03-06T19:19:11.030Z,97399.59
2023-03-06T19:22:04.876Z,97400.09
2023-03-06T19:24:58.496Z,97397.39
2023-03-06T19:27:52.213Z,97393.27
2023-03-06T19:30:46.038Z,97391.77
2023-03-06T19:33:39.902Z,97394.47
2023-03-06T19:36:34.435Z,97386.70
2023-03-06T19:39:28.217Z,97383.78
2023-03-06T19:42:21.894Z,97383.61
2023-03-06T19:45:16.505Z,97378.93
2023-03-06T19:48:12.296Z,97380.42
2023-03-06T19:51:09.929Z,97380.19
2023-03-06T19:54:02.044Z,97375.58
2023-03-06T19:56:55.876Z,97376.11
2023-03-06T19:59:44.353Z,97376.52
2023-03-06T20:02:38.877Z,97372.40
2023-03-06T20:05:32.581Z,97374.49
2023-03-06T20:08:26.428Z,97374.36
2023-03-06T20:11:22.728Z,97378.31
2023-03-06T20:14:18.390Z,97379.48
2023-03-06T20:17:12.163Z,97376.33
2023-03-06T20:20:06.865Z,97376.80
2023-03-06T20:23:04.655Z,97375.45
2023-03-06T20:26:02.326Z,97375.09
2023-03-06T20:28:54.734Z,97377.45
2023-03-06T20:31:48.330Z,97374.17
2023-03-06T20:34:42.420Z,97373.24
2023-03-06T20:37:36.073Z,97373.30
2023-03-06T20:40:29.931Z,97374.48
2023-03-06T20:43:23.756Z,97369.80
2023-03-06T20:46:23.616Z,97373.16
2023-03-06T20:49:17.903Z,97371.85
2023-03-06T20:52:11.533Z,97373.35
2023-03-06T20:55:05.706Z,97374.44
2023-03-06T20:57:59.352Z,97376.11
2023-03-06T21:00:53.062Z,97373.12
2023-03-06T21:03:46.635Z,97373.84
2023-03-06T21:06:41.955Z,97370.17
2023-03-06T21:09:37.698Z,97370.64
2023-03-06T21:12:31.515Z,97367.83
2023-03-06T21:15:30.573Z,97367.30
2023-03-06T21:18:24.332Z,97368.41
2023-03-06T21:21:21.437Z,97371.14
2023-03-06T21:24:15.960Z,97373.15
2023-03-06T21:27:09.526Z,97370.81
2023-03-06T21:30:03.217Z,97369.03
2023-03-06T21:32:56.973Z,97371.95
2023-03-06T21:35:50.708Z,97372.08
2023-03-06T21:38:44.424Z,97370.91
2023-03-06T21:41:38.397Z,97371.02
2023-03-06T21:44:31.990Z,97368.62
2023-03-06T21:47:25.535Z,97370.90
2023-03-06T21:50:19.597Z,97367.12
2023-03-06T21:53:13.318Z,97366.65
2023-03-06T21:56:09.937Z,97367.08
2023-03-06T21:59:03.861Z,97367.58
2023-03-06T22:01:57.469Z,97369.73
2023-03-06T22:04:34.167Z,97365.34
2023-03-06T22:07:29.124Z,97360.65
2023-03-06T22:10:22.995Z,97362.06
2023-03-06T22:13:16.628Z,97359.17
2023-03-06T22:16:11.344Z,97355.41
2023-03-06T22:19:05.262Z,97351.04
2023-03-06T22:21:58.849Z,97349.05
2023-03-06T22:24:52.673Z,97348.71
2023-03-06T22:27:46.225Z,97347.99
2023-03-06T22:30:39.833Z,97354.20
2023-03-06T22:33:33.535Z,97351.52
2023-03-06T22:36:28.074Z,97351.05
2023-03-06T22:39:21.624Z,97352.77
2023-03-06T22:42:15.380Z,97349.09
2023-03-06T22:45:11.311Z,97353.90
2023-03-06T22:48:10.815Z,97355.88
2023-03-06T22:51:11.078Z,97355.77
2023-03-06T22:54:05.273Z,97350.67
2023-03-06T22:56:58.909Z,97353.88
2023-03-06T22:59:52.432Z,97348.19
2023-03-06T23:02:46.136Z,97355.73
2023-03-06T23:05:44.179Z,97353.42
2023-03-06T23:08:38.131Z,97350.86
2023-03-06T23:11:33.176Z,97352.33
2023-03-06T23:14:26.901Z,97350.65
2023-03-06T23:17:21.500Z,97349.29
2023-03-06T23:20:16.961Z,97348.48
2023-03-06T23:23:10.768Z,97350.64
2023-03-06T23:26:04.886Z,97352.20
2023-03-06T23:28:59.295Z,97347.78
2023-03-06T23:31:52.880Z,97347.48
2023-03-06T23:34:48.562Z,97350.20
2023-03-06T23:37:42.419Z,97351.27
2023-03-06T23:40:21.974Z,97353.11
2023-03-06T23:43:15.666Z,97352.23
2023-03-06T23:46:09.844Z,97355.13
2023-03-06T23:49:03.986Z,97349.42
2023-03-06T23:51:57.537Z,97353.54
2023-03-06T23:54:52.196Z,97350.06
2023-03-06T23:57:45.937Z,97349.98
